createdAt,value
2019-03-06T00:02:15.997Z,95311.56
2019-03-06T00:04:46.132Z,95312.61
2019-03-06T00:07:16.412Z,95322.73
2019-03-06T00:09:46.611Z,95321.64
2019-03-06T00:12:16.733Z,95326.87
2019-03-06T00:14:46.841Z,95319.70
2019-03-06T00:17:17.058Z,95318.75
2019-03-06T00:19:47.309Z,95319.88
2019-03-06T00:22:17.430Z,95317.62
2019-03-06T00:24:47.441Z,95316.61
2019-03-06T00:27:18.103Z,95322.39
2019-03-06T00:29:48.613Z,95317.10
2019-03-06T00:32:18.517Z,95310.43
2019-03-06T00:34:48.703Z,95302.52
2019-03-06T00:37:18.903Z,95304.94
2019-03-06T00:39:57.715Z,95303.60
2019-03-06T00:42:28.002Z,95294.83
2019-03-06T00:44:58.201Z,95296.15
2019-03-06T00:47:28.262Z,95293.23
2019-03-06T00:49:58.187Z,95294.00
2019-03-06T00:52:28.386Z,95287.10
2019-03-06T00:54:58.583Z,95288.13
2019-03-06T00:57:28.486Z,95286.08
2019-03-06T00:59:58.500Z,95287.11
2019-03-06T01:02:28.771Z,95281.86
2019-03-06T01:04:58.956Z,95274.16
2019-03-06T01:07:28.955Z,95289.58
2019-03-06T01:09:59.052Z,95289.83
2019-03-06T01:12:29.333Z,95287.45
2019-03-06T01:14:59.528Z,95290.91
2019-03-06T01:17:29.553Z,95294.34
2019-03-06T01:19:59.578Z,95288.78
2019-03-06T01:22:29.859Z,95299.63
2019-03-06T01:25:00.326Z,95292.48
2019-03-06T01:27:30.785Z,95280.01
2019-03-06T01:30:00.882Z,95288.74
2019-03-06T01:32:31.448Z,95294.61
2019-03-06T01:35:19.243Z,95297.00
2019-03-06T01:37:56.917Z,95298.57
2019-03-06T01:40:51.610Z,95296.21
2019-03-06T01:43:27.267Z,95297.23
2019-03-06T01:45:57.468Z,95305.14
2019-03-06T01:48:27.475Z,95308.09
2019-03-06T01:50:57.554Z,95299.65
2019-03-06T01:53:27.785Z,95296.20
2019-03-06T01:55:58.001Z,95299.09
2019-03-06T01:58:28.118Z,95297.21
2019-03-06T02:00:58.310Z,95302.54
2019-03-06T02:03:28.442Z,95305.47
2019-03-06T02:05:58.669Z,95303.64
2019-03-06T02:08:28.871Z,95296.95
2019-03-06T02:10:59.069Z,95301.15
2019-03-06T02:13:29.165Z,95295.08
2019-03-06T02:15:59.175Z,95300.67
2019-03-06T02:18:29.398Z,95303.37
2019-03-06T02:20:59.760Z,95305.22
2019-03-06T02:23:29.897Z,95307.59
2019-03-06T02:26:00.179Z,95321.89
2019-03-06T02:28:30.548Z,95318.18
2019-03-06T02:31:01.513Z,95321.87
2019-03-06T02:33:31.609Z,95318.19
2019-03-06T02:36:01.728Z,95323.48
2019-03-06T02:38:32.017Z,95336.75
2019-03-06T02:41:02.134Z,95331.17
2019-03-06T02:43:32.342Z,95331.16
2019-03-06T02:46:02.545Z,95326.64
2019-03-06T02:48:32.435Z,95322.92
2019-03-06T02:51:02.456Z,95333.27
2019-03-06T02:53:32.720Z,95324.02
2019-03-06T02:56:02.921Z,95326.33
2019-03-06T02:59:00.649Z,95325.31
2019-03-06T03:01:52.641Z,95334.34
2019-03-06T03:04:30.647Z,95334.06
2019-03-06T03:07:04.284Z,95330.61
2019-03-06T03:09:34.300Z,95335.89
2019-03-06T03:12:04.444Z,95336.69
2019-03-06T03:14:34.649Z,95335.66
2019-03-06T03:17:04.854Z,95341.48
2019-03-06T03:19:34.943Z,95345.45
2019-03-06T03:22:05.515Z,95349.91
2019-03-06T03:24:35.636Z,95367.67
2019-03-06T03:27:05.768Z,95367.37
2019-03-06T03:29:36.086Z,95369.25
2019-03-06T03:32:06.527Z,95370.83
2019-03-06T03:34:36.717Z,95369.67
2019-03-06T03:37:06.850Z,95379.22
2019-03-06T03:39:37.173Z,95377.23
2019-03-06T03:42:07.461Z,95379.45
2019-03-06T03:44:37.469Z,95385.94
2019-03-06T03:47:07.594Z,95373.63
2019-03-06T03:49:37.803Z,95370.42
2019-03-06T03:52:08.013Z,95375.92
2019-03-06T03:54:38.013Z,95383.39
2019-03-06T03:57:08.020Z,95387.67
2019-03-06T03:59:38.218Z,95391.80
2019-03-06T04:02:08.412Z,95393.57
2019-03-06T04:04:38.500Z,95398.16
2019-03-06T04:07:08.512Z,95404.56
2019-03-06T04:09:38.718Z,95408.77
2019-03-06T04:12:08.910Z,95410.42
2019-03-06T04:14:38.806Z,95415.70
2019-03-06T04:17:08.886Z,95418.36
2019-03-06T04:19:39.083Z,95406.52
2019-03-06T04:22:09.658Z,95403.17
2019-03-06T04:24:39.558Z,95414.83
2019-03-06T04:27:09.465Z,95415.13
2019-03-06T04:29:39.788Z,95413.55
2019-03-06T04:32:10.070Z,95416.48
2019-03-06T04:34:40.244Z,95418.27
2019-03-06T04:37:10.260Z,95419.00
2019-03-06T04:39:40.468Z,95415.58
2019-03-06T04:42:10.469Z,95415.46
2019-03-06T04:44:40.666Z,95421.98
2019-03-06T04:47:10.847Z,95424.65
2019-03-06T04:49:40.891Z,95427.26
2019-03-06T04:52:10.915Z,95429.07
2019-03-06T04:54:41.139Z,95430.80
2019-03-06T04:57:11.333Z,95439.29
2019-03-06T04:59:41.441Z,95444.84
2019-03-06T05:02:11.357Z,95453.38
2019-03-06T05:04:41.551Z,95469.47
2019-03-06T05:07:11.753Z,95462.89
2019-03-06T05:09:41.832Z,95466.19
2019-03-06T05:12:11.902Z,95471.17
2019-03-06T05:14:42.115Z,95466.14
2019-03-06T05:17:40.451Z,95465.08
2019-03-06T05:20:10.743Z,95467.16
2019-03-06T05:22:40.938Z,95468.72
2019-03-06T05:25:11.157Z,95470.64
2019-03-06T05:27:41.192Z,95477.66
2019-03-06T05:30:11.699Z,95474.28
2019-03-06T05:32:42.154Z,95475.63
2019-03-06T05:35:28.770Z,95485.89
2019-03-06T05:38:08.728Z,95488.07
2019-03-06T05:40:38.956Z,95488.95
2019-03-06T05:43:09.164Z,95492.94
2019-03-06T05:45:39.266Z,95502.57
2019-03-06T05:48:09.208Z,95495.41
2019-03-06T05:50:39.415Z,95492.23
2019-03-06T05:53:09.603Z,95495.02
2019-03-06T05:55:39.606Z,95495.91
2019-03-06T05:58:09.986Z,95509.23
2019-03-06T06:00:40.170Z,95508.55
2019-03-06T06:03:10.286Z,95513.17
2019-03-06T06:05:40.502Z,95502.20
2019-03-06T06:08:10.703Z,95500.97
2019-03-06T06:10:40.727Z,95501.44
2019-03-06T06:13:10.751Z,95506.27
2019-03-06T06:15:40.948Z,95513.41
2019-03-06T06:18:11.122Z,95511.70
2019-03-06T06:20:41.153Z,95505.23
2019-03-06T06:23:17.147Z,95504.70
2019-03-06T06:25:47.372Z,95507.27
2019-03-06T06:28:17.632Z,95514.91
2019-03-06T06:30:47.741Z,95526.11
2019-03-06T06:33:17.870Z,95534.84
2019-03-06T06:35:48.072Z,95530.01
2019-03-06T06:38:18.264Z,95521.30
2019-03-06T06:40:48.310Z,95528.90
2019-03-06T06:43:18.691Z,95532.19
2019-03-06T06:45:48.704Z,95520.59
2019-03-06T06:48:23.773Z,95511.87
2019-03-06T06:51:01.659Z,95507.48
2019-03-06T06:53:42.561Z,95509.02
2019-03-06T06:57:05.155Z,95519.41
2019-03-06T06:59:58.095Z,95521.38
2019-03-06T07:03:41.920Z,95506.41
2019-03-06T07:06:33.803Z,95511.78
2019-03-06T07:09:15.783Z,95508.90
2019-03-06T07:12:04.632Z,95499.26
2019-03-06T07:14:59.753Z,95511.79
2019-03-06T07:17:47.030Z,95523.44
2019-03-06T07:20:36.014Z,95523.34
2019-03-06T07:23:24.968Z,95531.96
2019-03-06T07:26:08.913Z,95535.41
2019-03-06T07:28:50.437Z,95538.02
2019-03-06T07:31:42.818Z,95535.55
2019-03-06T07:34:30.375Z,95534.68
2019-03-06T07:37:28.714Z,95535.39
2019-03-06T07:40:01.136Z,95533.03
2019-03-06T07:42:59.451Z,95532.99
2019-03-06T07:45:59.540Z,95539.81
2019-03-06T07:48:48.581Z,95530.58
2019-03-06T07:51:26.730Z,95533.39
2019-03-06T07:54:15.175Z,95536.20
2019-03-06T07:56:51.840Z,95528.20
2019-03-06T07:59:21.764Z,95529.06
2019-03-06T08:01:58.299Z,95520.98
2019-03-06T08:04:28.499Z,95521.73
2019-03-06T08:07:17.044Z,95526.07
2019-03-06T08:09:47.061Z,95527.30
2019-03-06T08:12:34.842Z,95511.72
2019-03-06T08:15:33.371Z,95501.48
2019-03-06T08:18:18.483Z,95484.83
2019-03-06T08:21:02.264Z,95488.06
2019-03-06T08:24:00.296Z,95482.80
2019-03-06T08:26:30.196Z,95486.52
2019-03-06T08:29:00.340Z,95488.17
2019-03-06T08:31:55.632Z,95483.47
2019-03-06T08:34:26.603Z,95486.48
2019-03-06T08:36:56.634Z,95498.70
2019-03-06T08:39:26.819Z,95500.41
2019-03-06T08:41:57.075Z,95507.35
2019-03-06T08:44:27.798Z,95506.50
2019-03-06T08:47:15.465Z,95498.48
2019-03-06T08:50:13.463Z,95497.65
2019-03-06T08:53:17.446Z,95490.68
2019-03-06T08:56:04.850Z,95494.06
2019-03-06T08:58:52.445Z,95506.02
2019-03-06T09:01:43.730Z,95512.95
2019-03-06T09:04:51.086Z,95517.77
2019-03-06T09:07:38.714Z,95516.48
2019-03-06T09:10:32.341Z,95519.11
2019-03-06T09:13:21.349Z,95515.88
2019-03-06T09:16:13.524Z,95509.11
2019-03-06T09:19:01.436Z,95513.69
2019-03-06T09:21:46.554Z,95512.89
2019-03-06T09:24:35.552Z,95512.39
2019-03-06T09:27:25.612Z,95514.84
2019-03-06T09:30:16.218Z,95520.92
2019-03-06T09:32:59.242Z,95517.20
2019-03-06T09:35:40.712Z,95526.53
2019-03-06T09:38:28.615Z,95522.41
2019-03-06T09:41:20.889Z,95514.64
2019-03-06T09:44:12.989Z,95514.34
2019-03-06T09:47:17.277Z,95517.14
2019-03-06T09:50:03.473Z,95511.33
2019-03-06T09:53:04.403Z,95508.32
2019-03-06T09:55:53.407Z,95501.27
2019-03-06T09:58:41.040Z,95504.05
2019-03-06T10:01:28.822Z,95494.22
2019-03-06T10:04:35.742Z,95497.06
2019-03-06T10:07:30.046Z,95497.51
2019-03-06T10:10:17.977Z,95497.95
2019-03-06T10:13:03.564Z,95497.06
2019-03-06T10:15:52.572Z,95495.59
2019-03-06T10:18:44.861Z,95499.22
2019-03-06T10:21:15.058Z,95494.43
2019-03-06T10:23:45.064Z,95488.06
2019-03-06T10:26:15.246Z,95502.58
2019-03-06T10:28:45.357Z,95498.38
2019-03-06T10:31:15.749Z,95493.05
2019-03-06T10:33:46.279Z,95494.49
2019-03-06T10:36:17.952Z,95492.53
2019-03-06T10:38:48.338Z,95489.91
2019-03-06T10:41:18.754Z,95482.37
2019-03-06T10:43:49.633Z,95487.30
2019-03-06T10:46:20.062Z,95480.05
2019-03-06T10:48:50.243Z,95481.44
2019-03-06T10:51:20.782Z,95475.60
2019-03-06T10:53:51.060Z,95473.25
2019-03-06T10:56:21.402Z,95479.08
2019-03-06T10:58:51.649Z,95482.62
2019-03-06T11:01:22.176Z,95477.20
2019-03-06T11:04:11.226Z,95474.06
2019-03-06T11:06:41.671Z,95476.47
2019-03-06T11:09:12.992Z,95472.92
2019-03-06T11:11:43.203Z,95465.63
2019-03-06T11:14:13.721Z,95463.84
2019-03-06T11:16:43.914Z,95465.52
2019-03-06T11:19:15.606Z,95469.83
2019-03-06T11:21:45.844Z,95467.89
2019-03-06T11:24:15.938Z,95473.27
2019-03-06T11:26:46.409Z,95462.15
2019-03-06T11:29:16.608Z,95470.17
2019-03-06T11:31:46.803Z,95467.80
2019-03-06T11:34:18.001Z,95462.86
2019-03-06T11:36:48.360Z,95464.09
2019-03-06T11:39:18.999Z,95460.16
2019-03-06T11:41:49.166Z,95454.80
2019-03-06T11:44:19.354Z,95458.12
2019-03-06T11:46:49.542Z,95458.20
2019-03-06T11:49:19.466Z,95456.72
2019-03-06T11:51:49.602Z,95458.29
2019-03-06T11:54:19.814Z,95458.71
2019-03-06T11:56:49.952Z,95460.12
2019-03-06T11:59:20.341Z,95452.88
2019-03-06T12:01:50.630Z,95455.08
2019-03-06T12:04:20.859Z,95456.95
2019-03-06T12:06:51.025Z,95449.53
2019-03-06T12:09:29.693Z,95457.97
2019-03-06T12:12:00.488Z,95463.73
2019-03-06T12:14:30.773Z,95460.77
2019-03-06T12:17:00.918Z,95457.63
2019-03-06T12:19:30.993Z,95453.70
2019-03-06T12:22:01.357Z,95453.63
2019-03-06T12:24:31.575Z,95455.29
2019-03-06T12:27:01.698Z,95449.05
2019-03-06T12:29:31.917Z,95439.73
2019-03-06T12:32:03.504Z,95433.34
2019-03-06T12:34:33.963Z,95437.73
2019-03-06T12:37:04.265Z,95429.59
2019-03-06T12:39:34.489Z,95426.08
2019-03-06T12:42:13.734Z,95423.14
2019-03-06T12:44:36.832Z,95425.22
2019-03-06T12:47:06.974Z,95424.73
2019-03-06T12:49:37.186Z,95429.84
2019-03-06T12:52:07.363Z,95427.27
2019-03-06T12:54:37.399Z,95430.16
2019-03-06T12:57:07.968Z,95426.44
2019-03-06T12:59:38.163Z,95426.01
2019-03-06T13:02:08.441Z,95424.93
2019-03-06T13:04:38.514Z,95430.25
2019-03-06T13:07:08.675Z,95429.69
2019-03-06T13:09:38.826Z,95426.19
2019-03-06T13:12:09.183Z,95427.81
2019-03-06T13:14:39.382Z,95426.17
2019-03-06T13:17:09.432Z,95415.98
2019-03-06T13:19:39.408Z,95425.61
2019-03-06T13:22:11.447Z,95422.55
2019-03-06T13:24:41.468Z,95418.75
2019-03-06T13:27:11.508Z,95419.38
2019-03-06T13:29:41.593Z,95417.63
2019-03-06T13:32:12.348Z,95417.58
2019-03-06T13:34:51.638Z,95422.59
2019-03-06T13:37:21.777Z,95428.55
2019-03-06T13:39:51.695Z,95425.84
2019-03-06T13:42:21.754Z,95423.42
2019-03-06T13:44:52.010Z,95418.36
2019-03-06T13:47:22.076Z,95418.30
2019-03-06T13:49:52.282Z,95424.05
2019-03-06T13:52:22.428Z,95423.50
2019-03-06T13:54:52.602Z,95434.95
2019-03-06T13:57:22.750Z,95433.02
2019-03-06T13:59:52.988Z,95434.36
2019-03-06T14:02:23.151Z,95434.29
2019-03-06T14:04:53.650Z,95445.84
2019-03-06T14:07:23.792Z,95437.50
2019-03-06T14:09:53.988Z,95435.34
2019-03-06T14:12:24.135Z,95437.88
2019-03-06T14:14:54.137Z,95433.77
2019-03-06T14:17:24.236Z,95430.16
2019-03-06T14:19:54.445Z,95430.92
2019-03-06T14:22:24.617Z,95428.70
2019-03-06T14:24:54.792Z,95435.02
2019-03-06T14:27:25.061Z,95425.69
2019-03-06T14:29:55.178Z,95422.83
2019-03-06T14:32:25.562Z,95431.56
2019-03-06T14:34:56.350Z,95428.38
2019-03-06T14:37:26.659Z,95438.90
2019-03-06T14:39:56.950Z,95442.69
2019-03-06T14:42:27.663Z,95430.58
2019-03-06T14:44:58.264Z,95441.95
2019-03-06T14:47:28.448Z,95436.02
2019-03-06T14:49:58.485Z,95441.91
2019-03-06T14:52:28.725Z,95448.53
2019-03-06T14:54:58.918Z,95447.36
2019-03-06T14:57:29.073Z,95448.52
2019-03-06T14:59:58.978Z,95450.97
2019-03-06T15:02:29.069Z,95448.88
2019-03-06T15:04:59.277Z,95446.77
2019-03-06T15:07:29.411Z,95445.13
2019-03-06T15:09:59.530Z,95448.23
2019-03-06T15:12:31.488Z,95448.16
2019-03-06T15:15:01.833Z,95458.95
2019-03-06T15:17:31.905Z,95457.92
2019-03-06T15:20:01.929Z,95456.92
2019-03-06T15:22:38.368Z,95472.45
2019-03-06T15:25:04.314Z,95468.13
2019-03-06T15:27:34.451Z,95477.77
2019-03-06T15:30:06.133Z,95472.13
2019-03-06T15:32:36.210Z,95477.99
2019-03-06T15:35:06.456Z,95480.58
2019-03-06T15:37:36.632Z,95486.40
2019-03-06T15:40:09.398Z,95489.72
2019-03-06T15:42:39.584Z,95502.39
2019-03-06T15:45:10.097Z,95492.41
2019-03-06T15:47:40.228Z,95490.52
2019-03-06T15:52:40.320Z,95487.58
2019-03-06T15:55:11.004Z,95494.25
2019-03-06T15:57:41.257Z,95500.91
2019-03-06T16:00:23.347Z,95501.00
2019-03-06T16:02:53.549Z,95508.75
2019-03-06T16:05:23.557Z,95509.45
2019-03-06T16:07:53.690Z,95516.39
2019-03-06T16:10:23.982Z,95518.09
2019-03-06T16:12:54.212Z,95528.16
2019-03-06T16:15:25.820Z,95533.23
2019-03-06T16:17:57.389Z,95540.81
2019-03-06T16:20:27.843Z,95550.83
2019-03-06T16:22:58.101Z,95553.02
2019-03-06T16:25:36.403Z,95554.37
2019-03-06T16:28:00.392Z,95559.25
2019-03-06T16:30:31.188Z,95559.56
2019-03-06T16:33:01.510Z,95568.45
2019-03-06T16:35:31.967Z,95568.05
2019-03-06T16:38:02.493Z,95569.02
2019-03-06T16:40:33.036Z,95577.43
2019-03-06T16:43:03.344Z,95585.35
2019-03-06T16:45:33.712Z,95590.72
2019-03-06T16:48:03.971Z,95604.53
2019-03-06T16:50:34.028Z,95601.85
2019-03-06T16:53:04.372Z,95605.91
2019-03-06T16:55:34.685Z,95620.06
2019-03-06T16:58:05.125Z,95621.21
2019-03-06T17:00:35.303Z,95628.97
2019-03-06T17:03:05.738Z,95626.56
2019-03-06T17:05:36.165Z,95631.11
2019-03-06T17:08:06.866Z,95633.34
2019-03-06T17:10:39.012Z,95633.46
2019-03-06T17:13:09.491Z,95641.65
2019-03-06T17:15:39.701Z,95636.42
2019-03-06T17:18:09.928Z,95637.22
2019-03-06T17:20:40.259Z,95653.94
2019-03-06T17:23:10.482Z,95654.30
2019-03-06T17:25:40.611Z,95651.32
2019-03-06T17:28:11.146Z,95652.85
2019-03-06T17:30:41.899Z,95661.38
2019-03-06T17:33:12.626Z,95659.38
2019-03-06T17:35:42.950Z,95669.70
2019-03-06T17:38:13.696Z,95670.41
2019-03-06T17:40:44.660Z,95664.34
2019-03-06T17:43:15.116Z,95664.20
2019-03-06T17:45:46.083Z,95667.94
2019-03-06T17:48:16.373Z,95666.20
2019-03-06T17:50:46.497Z,95673.08
2019-03-06T17:53:16.608Z,95670.78
2019-03-06T17:55:46.854Z,95670.44
2019-03-06T17:58:17.232Z,95674.18
2019-03-06T18:00:52.729Z,95673.41
2019-03-06T18:03:39.827Z,95682.74
2019-03-06T18:06:10.055Z,95686.58
2019-03-06T18:08:40.534Z,95696.23
2019-03-06T18:11:10.681Z,95697.97
2019-03-06T18:13:40.635Z,95701.38
2019-03-06T18:16:10.887Z,95701.09
2019-03-06T18:18:41.131Z,95702.16
2019-03-06T18:21:11.555Z,95711.62
2019-03-06T18:23:41.704Z,95704.22
2019-03-06T18:26:12.165Z,95711.59
2019-03-06T18:28:42.385Z,95714.53
2019-03-06T18:31:12.723Z,95731.55
2019-03-06T18:33:42.952Z,95728.62
2019-03-06T18:36:13.451Z,95729.56
2019-03-06T18:38:43.701Z,95732.20
2019-03-06T18:41:14.104Z,95727.38
2019-03-06T18:43:44.314Z,95728.03
2019-03-06T18:46:14.447Z,95730.95
2019-03-06T18:48:44.655Z,95725.41
2019-03-06T18:51:14.877Z,95730.73
2019-03-06T18:53:45.114Z,95723.06
2019-03-06T18:56:15.338Z,95725.67
2019-03-06T18:58:45.367Z,95723.78
2019-03-06T19:01:15.596Z,95725.13
2019-03-06T19:03:45.980Z,95732.05
2019-03-06T19:06:16.019Z,95734.49
2019-03-06T19:08:46.308Z,95735.73
2019-03-06T19:11:17.247Z,95737.81
2019-03-06T19:13:47.533Z,95552.40
2019-03-06T19:16:17.761Z,95744.40
2019-03-06T19:18:49.507Z,95743.66
2019-03-06T19:21:19.634Z,95752.20
2019-03-06T19:23:49.865Z,95754.61
2019-03-06T19:26:20.103Z,95757.52
2019-03-06T19:28:50.385Z,95756.72
2019-03-06T19:31:20.622Z,95757.50
2019-03-06T19:33:50.749Z,95762.02
2019-03-06T19:36:20.984Z,95757.77
2019-03-06T19:38:51.726Z,95757.52
2019-03-06T19:41:24.541Z,95764.17
2019-03-06T19:43:55.243Z,95772.16
2019-03-06T19:46:25.559Z,95777.80
2019-03-06T19:48:55.731Z,95774.88
2019-03-06T19:51:26.044Z,95782.22
2019-03-06T19:53:56.368Z,95792.77
2019-03-06T19:56:26.653Z,95803.30
2019-03-06T19:58:56.906Z,95804.09
2019-03-06T20:01:27.221Z,95805.77
2019-03-06T20:03:57.516Z,95800.28
2019-03-06T20:06:27.686Z,95715.30
2019-03-06T20:08:57.918Z,95803.00
2019-03-06T20:11:28.532Z,95811.20
2019-03-06T20:13:58.849Z,95815.93
2019-03-06T20:16:28.917Z,95816.48
2019-03-06T20:18:59.096Z,95814.14
2019-03-06T20:21:29.403Z,95820.77
2019-03-06T20:23:59.705Z,95829.53
2019-03-06T20:26:30.035Z,95828.44
2019-03-06T20:29:00.283Z,95838.02
2019-03-06T20:31:30.529Z,95838.22
2019-03-06T20:34:00.821Z,95841.50
2019-03-06T20:36:30.873Z,95832.02
2019-03-06T20:39:01.283Z,95837.94
2019-03-06T20:41:33.021Z,95842.18
2019-03-06T20:44:03.395Z,95849.91
2019-03-06T20:46:33.589Z,95855.73
2019-03-06T20:49:03.791Z,95859.99
2019-03-06T20:51:34.101Z,95875.60
2019-03-06T20:54:04.744Z,95876.08
2019-03-06T20:56:34.776Z,95874.25
2019-03-06T20:59:04.995Z,95872.10
2019-03-06T21:01:35.499Z,95869.95
2019-03-06T21:04:05.830Z,95876.70
2019-03-06T21:06:36.499Z,95879.69
2019-03-06T21:09:08.419Z,95877.09
2019-03-06T21:11:38.419Z,95892.45
2019-03-06T21:14:08.632Z,95882.68
2019-03-06T21:16:38.954Z,95887.42
2019-03-06T21:19:09.287Z,95878.97
2019-03-06T21:21:39.318Z,95886.97
2019-03-06T21:24:09.345Z,95880.31
2019-03-06T21:26:39.665Z,95887.80
2019-03-06T21:29:09.915Z,95885.75
2019-03-06T21:31:40.101Z,95893.44
2019-03-06T21:34:10.204Z,95896.09
2019-03-06T21:36:40.441Z,95901.92
2019-03-06T21:39:22.439Z,95902.49
2019-03-06T21:41:52.785Z,95910.33
2019-03-06T21:44:22.895Z,95906.69
2019-03-06T21:46:53.220Z,95902.84
2019-03-06T21:49:23.478Z,95905.33
2019-03-06T21:51:54.133Z,95898.59
2019-03-06T21:54:24.511Z,95894.28
2019-03-06T21:56:54.642Z,95895.91
2019-03-06T21:59:24.673Z,95901.02
2019-03-06T22:01:54.917Z,95909.09
2019-03-06T22:04:25.501Z,95912.05
2019-03-06T22:06:55.664Z,95905.56
2019-03-06T22:09:25.810Z,95913.27
2019-03-06T22:11:56.050Z,95900.05
2019-03-06T22:14:26.331Z,95901.36
2019-03-06T22:16:56.367Z,95904.27
2019-03-06T22:19:26.522Z,95905.85
2019-03-06T22:21:56.800Z,95905.01
2019-03-06T22:24:27.077Z,95911.84
2019-03-06T22:26:57.110Z,95907.87
2019-03-06T22:29:27.323Z,95913.34
2019-03-06T22:31:57.519Z,95920.41
2019-03-06T22:34:27.720Z,95922.79
2019-03-06T22:36:57.963Z,95921.66
2019-03-06T22:39:28.254Z,95917.64
2019-03-06T22:41:58.386Z,95917.20
2019-03-06T22:44:28.312Z,95913.03
2019-03-06T22:46:58.538Z,95920.41
2019-03-06T22:49:29.018Z,95925.22
2019-03-06T22:51:59.104Z,95920.61
2019-03-06T22:54:29.135Z,95918.00
2019-03-06T22:56:59.364Z,95920.60
2019-03-06T22:59:29.565Z,95922.02
2019-03-06T23:01:59.957Z,95918.13
2019-03-06T23:04:30.178Z,95913.63
2019-03-06T23:07:00.371Z,95922.95
2019-03-06T23:09:30.398Z,95917.41
2019-03-06T23:12:00.679Z,95926.58
2019-03-06T23:14:30.864Z,95930.36
2019-03-06T23:17:00.987Z,95926.70
2019-03-06T23:19:31.099Z,95920.41
2019-03-06T23:22:01.313Z,95926.70
2019-03-06T23:24:31.504Z,95934.88
2019-03-06T23:27:01.420Z,95928.00
2019-03-06T23:29:31.474Z,95931.48
2019-03-06T23:32:01.694Z,95935.22
2019-03-06T23:34:31.897Z,95926.65
2019-03-06T23:37:01.903Z,95934.49
2019-03-06T23:39:32.095Z,95935.12
2019-03-06T23:42:02.609Z,95934.34
2019-03-06T23:44:33.002Z,95935.25
2019-03-06T23:47:03.129Z,95938.28
2019-03-06T23:49:33.306Z,95926.83
2019-03-06T23:52:10.685Z,95943.16
2019-03-06T23:54:40.722Z,95941.01
2019-03-06T23:57:10.928Z,95943.63
2019-03-06T23:59:41.110Z,95957.23
